createdAt,value
2022-10-23T00:04:12.226Z,11.89
2022-10-23T00:12:35.244Z,11.92
2022-10-23T00:20:58.399Z,11.94
2022-10-23T00:29:21.272Z,11.93
2022-10-23T00:37:44.416Z,11.93
2022-10-23T00:46:08.263Z,11.96
2022-10-23T00:54:43.212Z,11.95
2022-10-23T01:03:06.282Z,11.98
2022-10-23T01:11:45.981Z,11.99
2022-10-23T01:20:31.961Z,12.00
2022-10-23T01:29:21.341Z,12.00
2022-10-23T01:37:53.782Z,11.98
2022-10-23T01:46:18.526Z,11.95
2022-10-23T01:54:45.188Z,11.96
2022-10-23T02:03:09.607Z,11.94
2022-10-23T02:11:40.101Z,11.89
2022-10-23T02:20:18.342Z,11.86
2022-10-23T02:28:49.756Z,11.85
2022-10-23T02:37:13.506Z,11.87
2022-10-23T02:45:55.386Z,11.88
2022-10-23T02:54:23.139Z,11.89
2022-10-23T03:02:59.363Z,11.90
2022-10-23T03:11:25.080Z,11.93
2022-10-23T03:19:47.922Z,11.96
2022-10-23T03:28:10.803Z,11.97
2022-10-23T03:36:33.850Z,12.01
2022-10-23T03:44:56.837Z,12.04
2022-10-23T03:53:20.667Z,12.06
2022-10-23T04:01:43.906Z,12.04
2022-10-23T04:10:07.372Z,11.91
2022-10-23T04:18:30.422Z,11.81
2022-10-23T04:26:53.839Z,11.82
2022-10-23T04:35:17.524Z,11.84
2022-10-23T04:43:40.455Z,11.85
2022-10-23T04:52:04.100Z,11.89
2022-10-23T05:00:47.176Z,11.92
2022-10-23T05:09:16.733Z,11.90
2022-10-23T05:17:58.064Z,11.90
2022-10-23T05:26:22.888Z,11.87
2022-10-23T05:34:48.223Z,11.87
2022-10-23T05:43:11.231Z,11.84
2022-10-23T05:51:46.155Z,11.73
2022-10-23T06:00:38.590Z,11.74
2022-10-23T06:09:15.235Z,11.84
2022-10-23T06:17:38.922Z,11.87
2022-10-23T06:26:03.402Z,11.92
2022-10-23T06:34:32.187Z,11.94
2022-10-23T06:42:58.166Z,11.97
2022-10-23T06:51:44.293Z,11.93
2022-10-23T07:00:10.346Z,11.90
2022-10-23T07:08:39.727Z,11.87
2022-10-23T07:17:34.818Z,11.94
2022-10-23T07:26:15.761Z,12.05
2022-10-23T07:34:39.412Z,12.15
2022-10-23T07:43:26.374Z,12.34
2022-10-23T07:51:51.628Z,12.55
2022-10-23T08:00:15.597Z,12.71
2022-10-23T08:08:47.164Z,12.87
2022-10-23T08:17:10.255Z,12.99
2022-10-23T08:26:03.343Z,13.18
2022-10-23T08:34:28.550Z,13.42
2022-10-23T08:43:01.787Z,13.60
2022-10-23T08:51:37.229Z,13.76
2022-10-23T09:00:09.252Z,13.87
2022-10-23T09:09:00.243Z,13.88
2022-10-23T09:17:30.540Z,13.86
2022-10-23T09:25:57.102Z,13.91
2022-10-23T09:34:28.979Z,14.01
2022-10-23T09:43:13.675Z,14.25
2022-10-23T09:51:42.113Z,14.47
2022-10-23T10:00:16.023Z,14.66
2022-10-23T10:08:52.580Z,14.92
2022-10-23T10:17:45.573Z,15.15
2022-10-23T10:26:16.269Z,15.19
2022-10-23T10:34:56.167Z,15.06
2022-10-23T10:43:31.247Z,14.89
2022-10-23T10:52:04.664Z,14.93
2022-10-23T11:00:29.976Z,15.18
2022-10-23T11:08:57.894Z,15.41
2022-10-23T11:17:43.960Z,15.39
2022-10-23T11:26:29.665Z,15.31
2022-10-23T11:35:07.080Z,15.33
2022-10-23T11:43:52.454Z,15.45
2022-10-23T11:52:25.501Z,15.57
2022-10-23T12:01:00.398Z,15.66
2022-10-23T12:09:29.524Z,15.57
2022-10-23T12:17:56.303Z,15.55
2022-10-23T12:26:50.829Z,15.51
2022-10-23T12:36:04.052Z,15.66
2022-10-23T12:44:30.883Z,15.67
2022-10-23T12:53:08.296Z,15.59
2022-10-23T13:01:34.594Z,15.62
2022-10-23T13:09:59.069Z,15.57
2022-10-23T13:18:25.549Z,15.52
2022-10-23T13:26:49.976Z,15.51
2022-10-23T13:35:23.540Z,15.45
2022-10-23T13:43:48.567Z,15.44
2022-10-23T13:52:14.435Z,15.40
2022-10-23T14:00:38.833Z,15.38
2022-10-23T14:09:01.819Z,15.36
2022-10-23T14:17:24.727Z,15.27
2022-10-23T14:25:47.618Z,15.21
2022-10-23T14:34:11.947Z,15.17
2022-10-23T14:42:35.323Z,15.07
2022-10-23T14:50:58.145Z,14.85
2022-10-23T14:59:21.010Z,14.62
2022-10-23T15:07:43.876Z,14.41
2022-10-23T15:16:10.954Z,14.15
2022-10-23T15:24:34.478Z,13.93
2022-10-23T15:32:57.400Z,13.78
2022-10-23T15:41:41.232Z,13.62
2022-10-23T15:50:04.954Z,13.39
2022-10-23T15:58:29.682Z,13.15
2022-10-23T16:06:53.771Z,12.88
2022-10-23T16:15:17.313Z,12.59
2022-10-23T16:23:40.291Z,12.36
2022-10-23T16:32:03.380Z,12.10
2022-10-23T16:40:26.311Z,11.97
2022-10-23T16:49:09.228Z,11.84
2022-10-23T16:57:32.048Z,11.66
2022-10-23T17:06:01.618Z,11.36
2022-10-23T17:14:29.315Z,11.13
2022-10-23T17:22:52.182Z,10.97
2022-10-23T17:31:25.388Z,10.70
2022-10-23T17:39:48.206Z,10.44
2022-10-23T17:48:14.536Z,10.21
2022-10-23T17:56:38.447Z,10.05
2022-10-23T18:05:01.296Z,10.03
2022-10-23T18:13:24.123Z,9.99
2022-10-23T18:21:48.484Z,9.72
2022-10-23T18:30:12.286Z,9.57
2022-10-23T18:38:37.233Z,9.43
2022-10-23T18:47:00.144Z,9.29
2022-10-23T18:55:22.991Z,9.16
2022-10-23T19:03:46.019Z,9.03
2022-10-23T19:12:10.274Z,8.94
2022-10-23T19:20:34.208Z,8.78
2022-10-23T19:28:58.230Z,8.62
2022-10-23T19:37:21.056Z,8.54
2022-10-23T19:45:43.995Z,8.43
2022-10-23T19:54:06.930Z,8.27
2022-10-23T20:02:30.327Z,8.13
2022-10-23T20:10:54.753Z,7.99
2022-10-23T20:27:41.075Z,7.63
2022-10-23T20:36:07.295Z,7.43
2022-10-23T20:44:30.891Z,7.29
2022-10-23T20:53:19.981Z,7.19
2022-10-23T21:01:46.265Z,7.02
2022-10-23T21:10:09.507Z,6.79
2022-10-23T21:18:45.559Z,6.65
2022-10-23T21:27:09.123Z,6.56
2022-10-23T21:35:32.218Z,6.52
2022-10-23T21:43:57.771Z,6.52
2022-10-23T21:52:20.560Z,6.52
2022-10-23T22:00:43.484Z,6.51
2022-10-23T22:09:07.789Z,6.45
2022-10-23T22:17:30.633Z,6.34
2022-10-23T22:25:53.410Z,6.26
2022-10-23T22:34:28.718Z,6.29
2022-10-23T22:43:04.593Z,6.23
2022-10-23T22:51:29.803Z,6.19
2022-10-23T22:59:52.752Z,6.20
2022-10-23T23:08:15.656Z,6.13
2022-10-23T23:16:38.588Z,6.11
2022-10-23T23:25:01.467Z,6.11
2022-10-23T23:33:24.445Z,6.02
2022-10-23T23:41:47.289Z,5.98
2022-10-23T23:50:12.100Z,5.99
2022-10-23T23:58:35.090Z,5.93
